This is the latest recevied weather packets stored in our database for station/object W4VCO. If no packets are shown the sender has not sent any weather packets the latest 10 day(s).
| Time | Temp. | Humidity | Pressure | Rain* | Wind** | Luminosity | Snow |
|---|---|---|---|---|---|---|---|
| 1777685725 | 25° C | 65% | 1010.1 hPa | 0 mm | - | - | - |
| 1777684824 | 25.56° C | 61% | 1010.1 hPa | 0 mm | - | - | - |
| 1777683322 | 26.67° C | 59% | 1009.8 hPa | 0 mm | - | - | - |
| 1777679125 | 28.33° C | 51% | 1008.9 hPa | 0 mm | - | - | - |
| 1777676724 | 30° C | 45% | 1008.3 hPa | 0 mm | - | - | - |
| 1777673726 | 30.56° C | 42% | 1008 hPa | 0 mm | - | - | - |
| 1777671321 | 31.67° C | 39% | 1007.9 hPa | 0 mm | - | - | - |
| 1777666523 | 31.67° C | 39% | 1008.1 hPa | 0 mm | - | - | - |
| 1777658427 | 31.67° C | 40% | 1010.1 hPa | 0 mm | - | - | - |
| 1777650923 | 29.44° C | 50% | 1011.4 hPa | 0 mm | - | - | - |
| 1777647325 | 27.78° C | 60% | 1011.6 hPa | 0 mm | - | - | - |
| 1777644326 | 26.11° C | 68% | 1011.3 hPa | 0 mm | - | - | - |
| 1777643725 | 26.11° C | 69% | 1011.2 hPa | 0 mm | - | - | - |
| 1777641325 | 24.44° C | 79% | 1011.4 hPa | 0 mm | - | - | - |
| 1777636530 | 22.22° C | 92% | 1010.8 hPa | 0 mm | - | - | - |
| 1777632626 | 21.67° C | 92% | 1010.4 hPa | 0 mm | - | - | - |
| 1777616727 | 22.22° C | 87% | 1010.2 hPa | 0 mm | - | - | - |
| 1777615903 | 22.22° C | 87% | 1010.3 hPa | 0 mm | - | - | - |
| 1777615828 | 22.22° C | 87% | 1010.3 hPa | 0 mm | - | - | - |
| 1777615607 | 22.22° C | 86% | 1010.5 hPa | 0 mm | - | - | - |
| 1777615527 | 22.22° C | 86% | 1010.5 hPa | 0 mm | - | - | - |
| 1777614628 | 22.78° C | 86% | 1010.6 hPa | 0 mm | - | - | - |
| 1777613129 | 22.78° C | 85% | 1010.6 hPa | 0 mm | - | - | - |
| 1777612981 | 22.78° C | 84% | 1010.7 hPa | 0 mm | - | - | - |
| 1777612827 | 22.78° C | 84% | 1010.7 hPa | 0 mm | - | - | - |
* Rain latest hour (hover to see other rain measurements)
** Current wind speed in m/s (hover to see current wind gust speed)